Bettembourg, Luxembourg
Current Conditions -  °F | °C
As of 3:50 AM on Sunday 26 Oct 2014 (Local Time) from ELLX Reporting Station
NA  
Wind Chill: 46°   Ceiling: NA
Heat Index: 46°   Visibility: NA
Dew Point: 46°   Wind: 2mph
Humidity: 100%   Direction: 310°NW
Pressure: 30.24"   Gusts: NA
Location:  49.52°N, 6.1°E
Report Text: ELLX 260150Z AUTO 31002KT //// 08/08 Q1024
Loading
Personal Weather Stations






























Interactive Weather Map
Tropical Storm Tracking
New forecast layout! Learn more

10-Day Weather Forecast

Advertisements
Track Severe Weather on mobile